Time;durP1;ratioP1;P1;durP2;ratioP2;P2;SDS_P1;SDS_P2;PMS_P1;PMS_P2;Temp;Humidity;BMP_temperature;BMP_pressure;BME280_temperature;BME280_humidity;BME280_pressure;Samples;Min_cycle;Max_cycle;Signal;HPM_P1;HPM_P2
2021/01/09 00:02:04;;;;;;;10.60;8.15;;;;;;;10.15;51.04;99522.34;1776977;78;21166;-70
2021/01/09 00:04:32;;;;;;;8.55;7.47;;;;;;;10.15;51.04;99523.67;1777350;78;21615;-70
2021/01/09 00:06:59;;;;;;;8.80;7.17;;;;;;;10.13;51.03;99521.18;1774573;80;21646;-71
2021/01/09 00:09:26;;;;;;;8.95;7.65;;;;;;;10.13;51.06;99523.02;1779771;79;21175;-71
2021/01/09 00:11:54;;;;;;;9.88;7.83;;;;;;;10.14;51.04;99520.20;1809993;78;21197;-70
2021/01/09 00:14:22;;;;;;;11.00;8.25;;;;;;;10.14;51.03;99524.65;1802390;78;21111;-71
2021/01/09 00:16:50;;;;;;;9.75;8.20;;;;;;;10.13;51.00;99523.83;1799310;78;21123;-71
2021/01/09 00:19:17;;;;;;;8.73;7.45;;;;;;;10.13;50.99;99523.83;1776630;79;21176;-72
2021/01/09 00:21:45;;;;;;;11.03;8.43;;;;;;;10.12;51.01;99526.17;1790206;78;21112;-71
2021/01/09 00:24:12;;;;;;;10.38;8.20;;;;;;;10.13;51.03;99525.66;1793984;78;21461;-71
2021/01/09 00:26:39;;;;;;;10.50;8.20;;;;;;;10.13;51.01;99529.14;1801652;78;21112;-71
2021/01/09 00:29:08;;;;;;;10.40;8.28;;;;;;;10.12;51.01;99527.50;1787631;79;21130;-71
2021/01/09 00:31:35;;;;;;;9.53;7.95;;;;;;;10.12;51.06;99528.83;1775698;78;21123;-71
2021/01/09 00:34:03;;;;;;;9.35;7.58;;;;;;;10.12;51.02;99521.34;1791509;79;21128;-71
2021/01/09 00:36:30;;;;;;;11.93;9.10;;;;;;;10.13;51.03;99525.66;1788893;80;21377;-71
2021/01/09 00:38:58;;;;;;;10.05;8.28;;;;;;;10.12;51.03;99526.17;1809504;78;21175;-70
2021/01/09 00:41:28;;;;;;;9.70;8.50;;;;;;;10.12;51.06;99531.96;1802891;78;21171;-70
2021/01/09 00:43:55;;;;;;;9.48;8.20;;;;;;;10.12;51.07;99527.98;1770736;79;21151;-69
2021/01/09 00:46:23;;;;;;;8.98;8.08;;;;;;;10.12;51.04;99529.30;1776901;79;21159;-70
2021/01/09 00:48:51;;;;;;;9.85;8.23;;;;;;;10.10;51.03;99516.70;1787074;79;21578;-70
2021/01/09 00:51:18;;;;;;;9.53;7.95;;;;;;;10.12;51.08;99525.33;1778967;79;21191;-70
2021/01/09 00:53:45;;;;;;;10.75;8.78;;;;;;;10.12;51.05;99518.69;1765010;80;21171;-70
2021/01/09 00:56:16;;;;;;;9.43;7.85;;;;;;;10.11;51.02;99520.52;1764840;80;21117;-70
2021/01/09 00:58:43;;;;;;;8.25;7.40;;;;;;;10.10;51.05;99521.54;1798740;77;21187;-71
2021/01/09 01:01:11;;;;;;;9.78;8.28;;;;;;;10.11;51.05;99525.01;1802016;78;21351;-70
2021/01/09 01:03:42;;;;;;;9.55;8.55;;;;;;;10.10;51.03;99512.72;1772320;80;21231;-70
2021/01/09 01:06:10;;;;;;;10.45;8.08;;;;;;;10.10;51.03;99516.70;1818393;78;21750;-70
2021/01/09 01:08:38;;;;;;;11.00;9.00;;;;;;;10.10;51.03;99518.03;1756254;79;21146;-70
2021/01/09 01:11:06;;;;;;;11.18;8.73;;;;;;;10.09;51.03;99511.91;1812217;78;21151;-70
2021/01/09 01:13:33;;;;;;;11.10;8.65;;;;;;;10.09;51.03;99513.73;1748188;80;21286;-69
2021/01/09 01:16:01;;;;;;;9.83;8.60;;;;;;;10.10;51.01;99513.58;1774185;79;21131;-72
2021/01/09 01:18:29;;;;;;;11.40;9.08;;;;;;;10.10;51.00;99507.41;1765931;80;21191;-70
2021/01/09 01:20:56;;;;;;;11.45;8.60;;;;;;;10.10;51.05;99506.09;1783222;79;21158;-70
2021/01/09 01:23:23;;;;;;;11.20;9.13;;;;;;;10.09;51.04;99510.58;1786436;80;21615;-70
2021/01/09 01:25:50;;;;;;;9.18;7.97;;;;;;;10.09;51.04;99510.58;1765224;80;21271;-70
2021/01/09 01:28:17;;;;;;;10.05;8.23;;;;;;;10.10;51.02;99508.74;1790661;79;21174;-72
2021/01/09 01:30:45;;;;;;;11.08;9.35;;;;;;;10.09;51.01;99504.45;1792124;80;21603;-70
2021/01/09 01:33:12;;;;;;;10.13;8.20;;;;;;;10.09;51.03;99504.45;1729142;81;21605;-70
2021/01/09 01:35:41;;;;;;;10.90;8.80;;;;;;;10.09;51.03;99505.77;1781318;80;21182;-71
2021/01/09 01:38:08;;;;;;;10.70;9.35;;;;;;;10.07;51.04;99501.95;1794836;79;21363;-71
2021/01/09 01:40:37;;;;;;;10.75;9.23;;;;;;;10.08;51.04;99495.63;1769892;80;21193;-70
2021/01/09 01:43:11;;;;;;;12.90;9.60;;;;;;;10.08;51.06;99498.80;1784905;79;21162;-70
2021/01/09 01:45:40;;;;;;;12.85;9.98;;;;;;;10.08;51.06;99495.63;1785877;79;21449;-70
2021/01/09 01:48:11;;;;;;;11.57;9.25;;;;;;;10.08;51.02;99494.81;1783892;79;21161;-69
2021/01/09 01:50:39;;;;;;;9.93;8.58;;;;;;;10.08;51.06;99490.83;1799058;79;21342;-70
2021/01/09 01:53:07;;;;;;;10.75;9.08;;;;;;;10.08;51.04;99489.00;1795655;78;21194;-69
2021/01/09 01:55:34;;;;;;;12.03;9.38;;;;;;;10.07;51.03;99488.69;1803145;78;21598;-69
2021/01/09 01:58:03;;;;;;;11.68;8.60;;;;;;;10.07;51.01;99485.22;1795019;78;21118;-70
2021/01/09 02:00:31;;;;;;;9.58;8.50;;;;;;;10.07;51.02;99486.54;1773876;80;21115;-69
2021/01/09 02:03:00;;;;;;;10.28;8.73;;;;;;;10.07;51.02;99486.54;1759909;78;21397;-69
2021/01/09 02:05:36;;;;;;;12.95;9.23;;;;;;;10.07;51.03;99483.89;1780912;79;21164;-71
2021/01/09 02:08:07;;;;;;;10.13;9.08;;;;;;;10.07;51.03;99479.91;1787955;79;21194;-70
2021/01/09 02:10:34;;;;;;;11.50;9.48;;;;;;;10.07;51.05;99479.91;1768284;80;21148;-69
2021/01/09 02:13:05;;;;;;;10.75;8.53;;;;;;;10.06;51.05;99477.73;1794078;78;21167;-69
2021/01/09 02:15:33;;;;;;;12.10;10.00;;;;;;;10.06;51.03;99471.59;1786174;80;21122;-69
2021/01/09 02:18:01;;;;;;;11.97;9.80;;;;;;;10.05;51.04;99474.77;1775858;80;21178;-69
2021/01/09 02:20:28;;;;;;;11.20;9.50;;;;;;;10.06;51.03;99469.77;1793412;78;21169;-70
2021/01/09 02:22:56;;;;;;;12.15;9.68;;;;;;;10.06;51.02;99479.05;1781160;78;21163;-69
2021/01/09 02:25:23;;;;;;;11.85;10.00;;;;;;;10.04;51.03;99473.94;1796406;78;21194;-71
2021/01/09 02:27:57;;;;;;;10.82;9.58;;;;;;;10.04;51.05;99472.61;1804753;78;21208;-70
2021/01/09 02:30:25;;;;;;;10.00;8.33;;;;;;;10.05;51.05;99469.45;1815260;78;21182;-70
2021/01/09 02:33:05;;;;;;;11.75;10.48;;;;;;;10.04;51.05;99468.64;1812326;78;21170;-69
2021/01/09 02:35:34;;;;;;;11.70;10.18;;;;;;;10.03;51.06;99469.62;1793795;78;21163;-69
2021/01/09 02:38:03;;;;;;;10.63;8.88;;;;;;;10.03;51.05;99469.62;1815748;78;21110;-70
2021/01/09 02:40:30;;;;;;;10.45;9.30;;;;;;;10.04;51.05;99470.44;1788043;80;21281;-70
2021/01/09 02:42:58;;;;;;;11.35;9.53;;;;;;;10.04;51.06;99471.77;1793680;78;21152;-70
2021/01/09 02:45:26;;;;;;;11.35;9.58;;;;;;;10.04;51.07;99465.13;1827274;78;21198;-69
2021/01/09 02:47:53;;;;;;;11.75;10.08;;;;;;;10.05;51.09;99466.80;1785280;79;21225;-71
2021/01/09 02:50:20;;;;;;;11.50;9.90;;;;;;;10.04;51.07;99466.45;1817232;78;21181;-70
2021/01/09 02:52:48;;;;;;;12.07;9.35;;;;;;;10.04;51.07;99460.67;1806027;78;22811;-70
2021/01/09 02:55:16;;;;;;;12.70;10.13;;;;;;;10.04;51.04;99458.02;1794165;80;21157;-71
2021/01/09 02:57:44;;;;;;;13.18;10.68;;;;;;;10.04;51.04;99468.64;1801961;79;21174;-70
2021/01/09 03:00:14;;;;;;;12.10;10.30;;;;;;;10.04;51.04;99463.80;1802704;79;21154;-71
2021/01/09 03:02:42;;;;;;;11.35;9.45;;;;;;;10.03;51.05;99464.31;1793147;78;21598;-71
2021/01/09 03:05:10;;;;;;;11.83;9.60;;;;;;;10.03;51.05;99464.31;1800291;78;21381;-71
2021/01/09 03:07:37;;;;;;;9.95;8.80;;;;;;;10.04;51.03;99467.31;1798286;78;21610;-71
2021/01/09 03:10:07;;;;;;;11.55;9.68;;;;;;;10.03;51.04;99474.92;1808891;78;21646;-69
2021/01/09 03:12:34;;;;;;;11.57;9.30;;;;;;;10.04;51.03;99471.77;1818363;78;21158;-70
2021/01/09 03:15:04;;;;;;;10.38;8.88;;;;;;;10.04;51.03;99468.64;1819648;78;21126;-70
2021/01/09 03:17:31;;;;;;;11.15;9.30;;;;;;;10.03;51.02;99462.98;1793721;78;21547;-70
2021/01/09 03:19:59;;;;;;;10.80;9.03;;;;;;;10.04;51.02;99464.66;1812264;78;21138;-71
2021/01/09 03:22:26;;;;;;;13.25;10.58;;;;;;;10.04;50.99;99468.64;1800928;78;21202;-72
2021/01/09 03:24:53;;;;;;;11.68;10.03;;;;;;;10.05;50.99;99468.13;1812190;78;21114;-71
2021/01/09 03:27:21;;;;;;;12.80;10.00;;;;;;;10.04;50.99;99462.48;1797691;78;21167;-70
2021/01/09 03:29:48;;;;;;;12.15;9.70;;;;;;;10.04;51.03;99462.00;1800756;78;23687;-71
2021/01/09 03:32:15;;;;;;;11.48;9.40;;;;;;;10.04;51.03;99465.98;1807531;78;21591;-72
2021/01/09 03:34:42;;;;;;;12.70;10.20;;;;;;;10.03;51.00;99456.34;1802594;78;21615;-70
2021/01/09 03:37:10;;;;;;;13.30;11.00;;;;;;;10.03;51.02;99457.67;1790327;78;21258;-70
2021/01/09 03:39:37;;;;;;;11.33;10.00;;;;;;;10.04;51.03;99462.48;1784351;80;21160;-70
2021/01/09 03:42:05;;;;;;;13.60;10.90;;;;;;;10.03;51.02;99466.97;1771468;80;21214;-70
2021/01/09 03:44:34;;;;;;;12.93;10.60;;;;;;;10.04;51.02;99462.48;1799657;78;21588;-71
2021/01/09 03:47:01;;;;;;;12.23;10.55;;;;;;;10.04;51.02;99466.45;1797583;79;21127;-70
2021/01/09 03:49:29;;;;;;;12.73;11.03;;;;;;;10.03;51.03;99468.30;1794261;80;21185;-70
2021/01/09 03:51:57;;;;;;;12.45;9.50;;;;;;;10.03;51.03;99467.47;1804214;78;21142;-70
2021/01/09 03:54:24;;;;;;;12.33;10.38;;;;;;;10.03;51.02;99472.27;1805144;78;23569;-70
2021/01/09 03:56:51;;;;;;;11.97;10.15;;;;;;;10.03;51.03;99474.92;1794605;78;21196;-71
2021/01/09 03:59:19;;;;;;;12.25;10.63;;;;;;;10.03;51.03;99472.78;1817716;78;21190;-70
2021/01/09 04:01:46;;;;;;;13.13;10.03;;;;;;;10.02;51.04;99471.96;1798099;78;21123;-70
2021/01/09 04:04:15;;;;;;;9.70;8.68;;;;;;;10.02;51.04;99470.64;1800887;78;21170;-70
2021/01/09 04:06:42;;;;;;;12.70;10.58;;;;;;;10.02;51.01;99469.31;1816479;78;21197;-71
2021/01/09 04:09:09;;;;;;;14.20;11.18;;;;;;;10.03;51.03;99475.44;1801487;78;21109;-71
2021/01/09 04:11:37;;;;;;;11.08;9.75;;;;;;;10.02;51.03;99469.31;1806911;78;21139;-70
2021/01/09 04:14:04;;;;;;;10.65;9.28;;;;;;;10.02;51.03;99474.61;1801656;78;21151;-71
2021/01/09 04:16:37;;;;;;;13.28;10.58;;;;;;;10.02;51.04;99473.77;1801339;78;21158;-71
2021/01/09 04:19:04;;;;;;;12.60;10.80;;;;;;;10.02;51.06;99475.94;1813704;78;21255;-70
2021/01/09 04:21:32;;;;;;;11.43;9.65;;;;;;;10.02;51.01;99475.94;1813609;78;21179;-71
2021/01/09 04:24:00;;;;;;;11.40;10.13;;;;;;;10.02;51.07;99475.09;1803730;78;21654;-69
2021/01/09 04:26:28;;;;;;;12.40;10.28;;;;;;;10.02;51.05;99479.08;1806437;78;21191;-70
2021/01/09 04:28:55;;;;;;;12.20;10.23;;;;;;;10.02;51.04;99479.08;1799055;78;21195;-70
2021/01/09 04:31:23;;;;;;;12.40;10.82;;;;;;;10.02;51.04;99477.75;1805588;78;21374;-71
2021/01/09 04:33:50;;;;;;;11.70;9.50;;;;;;;10.02;51.05;99485.23;1802540;78;21151;-71
2021/01/09 04:36:17;;;;;;;11.95;10.00;;;;;;;10.00;51.06;99487.20;1801771;78;21150;-70
2021/01/09 04:38:45;;;;;;;12.43;10.23;;;;;;;10.02;51.03;99491.02;1808954;78;21223;-71
2021/01/09 04:41:12;;;;;;;13.03;10.78;;;;;;;10.02;51.04;99488.36;1783716;79;21096;-71
2021/01/09 04:43:39;;;;;;;12.58;10.63;;;;;;;10.02;51.01;99487.89;1784074;80;22709;-70
2021/01/09 04:46:07;;;;;;;12.90;10.78;;;;;;;10.02;51.01;99489.21;1793048;79;21116;-70
2021/01/09 04:48:34;;;;;;;12.98;10.23;;;;;;;10.01;51.03;99487.55;1763456;79;21164;-70
2021/01/09 04:51:01;;;;;;;12.98;11.00;;;;;;;10.02;51.01;99494.52;1787510;79;23633;-69
2021/01/09 04:53:28;;;;;;;13.28;11.30;;;;;;;10.01;51.02;99486.72;1783067;79;21090;-70
2021/01/09 04:55:56;;;;;;;11.43;10.10;;;;;;;10.00;51.03;99487.20;1800609;79;21379;-71
2021/01/09 04:58:23;;;;;;;13.55;11.40;;;;;;;10.01;51.04;99497.34;1762493;81;21154;-70
2021/01/09 05:00:55;;;;;;;13.80;10.58;;;;;;;10.02;51.03;99500.30;1751824;81;21150;-70
2021/01/09 05:03:24;;;;;;;12.43;10.60;;;;;;;10.01;51.01;99502.64;1792879;79;21457;-70
2021/01/09 05:05:52;;;;;;;14.85;11.20;;;;;;;10.01;51.04;99505.30;1793367;79;21163;-69
2021/01/09 05:08:21;;;;;;;13.58;10.53;;;;;;;10.00;51.06;99502.30;1778310;79;21170;-71
2021/01/09 05:10:49;;;;;;;13.75;11.10;;;;;;;10.00;51.03;99499.14;1784165;79;21167;-70
2021/01/09 05:13:17;;;;;;;12.50;10.85;;;;;;;10.00;51.04;99504.95;1782008;79;21154;-70
2021/01/09 05:15:44;;;;;;;12.75;10.72;;;;;;;10.00;51.05;99505.77;1799927;79;21590;-70
2021/01/09 05:18:12;;;;;;;12.43;10.72;;;;;;;10.01;51.04;99507.95;1769833;79;21193;-70
2021/01/09 05:20:39;;;;;;;13.80;10.60;;;;;;;10.02;51.04;99510.92;1795987;79;21586;-69
2021/01/09 05:23:07;;;;;;;13.53;10.78;;;;;;;10.01;51.04;99512.75;1748651;79;21380;-70
2021/01/09 05:25:36;;;;;;;12.80;10.23;;;;;;;10.02;51.05;99509.59;1745666;80;21645;-71
2021/01/09 05:28:05;;;;;;;13.70;10.72;;;;;;;10.00;51.03;99515.06;1742275;78;21151;-70
2021/01/09 05:30:33;;;;;;;12.18;10.48;;;;;;;10.02;51.05;99524.19;1794180;78;21241;-72
2021/01/09 05:33:03;;;;;;;12.53;10.55;;;;;;;10.01;51.04;99523.88;1791413;78;21319;-71
2021/01/09 05:35:31;;;;;;;11.93;9.95;;;;;;;10.02;51.01;99529.50;1770473;80;21191;-71
2021/01/09 05:37:58;;;;;;;12.95;10.45;;;;;;;10.01;51.03;99530.00;1813255;78;21318;-70
2021/01/09 05:40:26;;;;;;;12.13;10.53;;;;;;;10.02;51.03;99533.00;1772443;80;21185;-70
2021/01/09 05:42:57;;;;;;;12.90;10.43;;;;;;;10.01;51.04;99533.98;1784656;80;21118;-71
2021/01/09 05:45:25;;;;;;;10.75;9.28;;;;;;;10.01;51.04;99536.64;1739507;80;21228;-70
2021/01/09 05:47:53;;;;;;;12.23;10.58;;;;;;;10.01;51.05;99535.31;1741545;81;21147;-70
2021/01/09 05:50:20;;;;;;;13.28;10.68;;;;;;;10.01;51.05;99537.97;1774594;80;21159;-71
2021/01/09 05:52:48;;;;;;;11.90;9.95;;;;;;;10.02;51.05;99545.42;1781493;80;21227;-71
2021/01/09 05:55:18;;;;;;;12.95;10.98;;;;;;;10.02;51.05;99544.95;1785933;80;21580;-71
2021/01/09 05:57:45;;;;;;;11.88;9.95;;;;;;;10.01;51.03;99544.60;1779340;80;21383;-71
2021/01/09 06:00:15;;;;;;;11.95;9.73;;;;;;;10.02;51.04;99547.59;1732642;79;21639;-70
2021/01/09 06:02:51;;;;;;;12.18;10.35;;;;;;;10.01;51.05;99545.93;1751074;80;21615;-71
2021/01/09 06:05:19;;;;;;;13.43;10.60;;;;;;;10.02;51.05;99549.40;1777699;80;21175;-71
2021/01/09 06:07:47;;;;;;;13.03;11.03;;;;;;;10.02;51.03;99550.73;1755991;79;21131;-71
2021/01/09 06:10:16;;;;;;;12.05;10.35;;;;;;;10.01;51.06;99553.89;1786435;79;21362;-70
2021/01/09 06:12:59;;;;;;;12.40;10.03;;;;;;;10.02;51.05;99559.55;1755443;80;21249;-70
2021/01/09 06:15:30;;;;;;;14.43;10.68;;;;;;;10.02;51.05;99566.17;1769191;80;21877;-72
2021/01/09 06:17:59;;;;;;;12.47;10.35;;;;;;;10.01;51.06;99564.51;1781107;79;21155;-72
2021/01/09 06:20:27;;;;;;;12.20;9.78;;;;;;;10.00;51.10;99563.34;1778632;79;21203;-71
2021/01/09 06:22:55;;;;;;;12.45;10.70;;;;;;;10.00;51.08;99564.67;1763709;80;21374;-71
2021/01/09 06:25:23;;;;;;;13.83;10.78;;;;;;;10.01;51.10;99561.03;1777404;79;21163;-71
2021/01/09 06:27:53;;;;;;;12.90;10.10;;;;;;;10.00;51.09;99569.97;1784116;79;21146;-70
2021/01/09 06:30:21;;;;;;;12.10;10.30;;;;;;;10.01;51.08;99564.51;1793034;80;21075;-71
2021/01/09 06:32:56;;;;;;;13.05;10.98;;;;;;;10.02;51.11;99573.28;1791589;79;21658;-71
2021/01/09 06:35:25;;;;;;;12.63;10.95;;;;;;;10.01;51.08;99570.32;1788325;79;21366;-72
2021/01/09 06:37:54;;;;;;;13.03;10.65;;;;;;;10.01;51.08;99573.80;1764401;80;21616;-70
2021/01/09 06:40:21;;;;;;;12.13;10.48;;;;;;;10.01;51.09;99577.77;1786455;80;21183;-71
2021/01/09 06:42:49;;;;;;;15.05;10.50;;;;;;;10.02;51.12;99584.75;1788812;79;21135;-71
2021/01/09 06:45:16;;;;;;;11.05;9.88;;;;;;;10.01;51.07;99583.08;1805571;78;21092;-70
2021/01/09 06:47:57;;;;;;;13.00;11.08;;;;;;;10.03;51.07;99588.23;1788529;79;22040;-71
2021/01/09 06:50:32;;;;;;;14.50;10.58;;;;;;;10.03;51.06;99586.91;1769357;79;21146;-71
2021/01/09 06:53:02;;;;;;;11.97;10.23;;;;;;;10.02;51.05;99587.41;1792434;79;21173;-71
2021/01/09 06:55:44;;;;;;;13.38;10.72;;;;;;;10.03;51.08;99593.54;1787828;79;21182;-71
2021/01/09 06:58:16;;;;;;;13.65;10.72;;;;;;;10.03;51.05;99594.86;1786953;79;21139;-70
2021/01/09 07:00:43;;;;;;;12.60;10.13;;;;;;;10.03;51.06;99595.69;1796625;79;21590;-71
2021/01/09 07:03:16;;;;;;;12.90;10.58;;;;;;;10.04;51.06;99590.72;1792821;79;21186;-71
2021/01/09 07:05:49;;;;;;;;;;;;;;;10.05;51.05;99595.52;1791587;79;21150;-70
2021/01/09 07:08:27;;;;;;;12.25;9.88;;;;;;;10.06;51.05;99596.34;1783205;79;20268;-71
2021/01/09 07:10:59;;;;;;;11.80;10.05;;;;;;;9.98;51.17;99595.86;1793938;79;21152;-72
2021/01/09 07:13:27;;;;;;;12.50;9.85;;;;;;;9.98;51.16;99595.86;1795223;79;21194;-70
2021/01/09 07:16:13;;;;;;;14.13;11.45;;;;;;;10.00;51.16;99594.68;1786949;79;21162;-70
2021/01/09 07:18:46;;;;;;;13.65;10.50;;;;;;;10.02;51.13;99601.16;1788911;79;21162;-70
2021/01/09 07:21:15;;;;;;;12.85;10.35;;;;;;;10.01;51.13;99594.20;1783988;79;21167;-70
2021/01/09 07:23:51;;;;;;;11.38;9.93;;;;;;;10.02;51.13;99605.14;1739781;79;21194;-70
2021/01/09 07:26:20;;;;;;;12.58;10.45;;;;;;;10.03;51.13;99601.50;1798893;79;22316;-71
2021/01/09 07:28:47;;;;;;;12.47;10.30;;;;;;;10.03;51.10;99610.28;1757913;79;21183;-71
2021/01/09 07:31:14;;;;;;;12.40;9.88;;;;;;;10.04;51.10;99604.47;1790362;79;21064;-70
2021/01/09 07:33:44;;;;;;;12.75;11.08;;;;;;;10.06;51.10;99609.61;1778705;79;21163;-71
2021/01/09 07:36:12;;;;;;;12.30;10.75;;;;;;;10.07;51.08;99602.00;1751861;80;21706;-70
2021/01/09 07:38:46;;;;;;;12.85;11.12;;;;;;;10.08;51.06;99606.29;1758653;80;21472;-73
2021/01/09 07:41:31;;;;;;;14.87;10.63;;;;;;;10.09;51.03;99611.95;1777857;80;21187;-72
2021/01/09 07:44:18;;;;;;;11.75;9.98;;;;;;;10.09;51.00;99606.64;1774686;80;21190;-72
2021/01/09 07:46:58;;;;;;;13.28;10.40;;;;;;;10.09;51.01;99609.29;1772927;80;21147;-71
2021/01/09 07:49:37;;;;;;;12.25;10.08;;;;;;;10.10;51.02;99614.91;1783892;80;21178;-71
2021/01/09 07:52:08;;;;;;;12.47;10.80;;;;;;;10.09;51.02;99610.62;1776005;80;21222;-72
2021/01/09 07:54:43;;;;;;;12.90;11.10;;;;;;;10.10;51.01;99617.56;1778466;80;21222;-70
2021/01/09 07:57:27;;;;;;;14.13;10.82;;;;;;;10.10;51.04;99617.09;1775432;80;21559;-71
2021/01/09 08:00:03;;;;;;;12.37;10.63;;;;;;;10.11;51.01;99620.56;1786336;80;21130;-70
2021/01/09 08:02:37;;;;;;;12.75;11.38;;;;;;;10.11;51.02;99616.59;1779571;80;21618;-71
2021/01/09 08:05:19;;;;;;;12.00;10.05;;;;;;;10.11;51.01;99620.06;1781826;79;21411;-72
2021/01/09 08:07:52;;;;;;;13.35;10.58;;;;;;;10.14;51.00;99624.19;1771808;80;22248;-70
2021/01/09 08:10:33;;;;;;;14.68;10.88;;;;;;;10.13;50.99;99619.90;1778614;80;28214;-71
2021/01/09 08:13:06;;;;;;;14.13;11.30;;;;;;;10.12;50.99;99619.55;1778677;79;21166;-71
2021/01/09 08:15:35;;;;;;;13.27;10.60;;;;;;;10.13;50.98;99622.05;1776890;79;21147;-71
2021/01/09 08:18:07;;;;;;;12.93;10.53;;;;;;;10.15;50.96;99617.91;1787506;80;21437;-70
2021/01/09 08:20:35;;;;;;;12.40;10.32;;;;;;;10.16;50.95;99618.22;1775236;80;21143;-70
2021/01/09 08:23:07;;;;;;;13.50;11.20;;;;;;;10.17;50.95;99626.52;1771455;80;21163;-70
2021/01/09 08:25:38;;;;;;;14.00;10.72;;;;;;;10.18;50.93;99622.89;1778934;80;21226;-70
2021/01/09 08:28:07;;;;;;;14.28;11.45;;;;;;;10.19;50.91;99624.02;1747720;80;21186;-70
2021/01/09 08:30:38;;;;;;;13.88;11.05;;;;;;;10.20;50.90;99621.71;1757992;80;21428;-70
2021/01/09 08:33:16;;;;;;;12.15;10.70;;;;;;;10.21;50.89;99621.20;1782094;79;21625;-70
2021/01/09 08:35:50;;;;;;;13.45;10.50;;;;;;;10.24;50.87;99616.89;1805733;78;21147;-71
2021/01/09 08:38:18;;;;;;;13.48;10.98;;;;;;;10.26;50.84;99616.70;1800879;78;21169;-71
2021/01/09 08:40:45;;;;;;;13.08;10.85;;;;;;;10.27;50.82;99612.56;1815698;78;21179;-70
2021/01/09 08:43:14;;;;;;;13.30;10.75;;;;;;;10.28;50.81;99608.09;1808573;78;21200;-71
2021/01/09 08:45:50;;;;;;;13.25;11.18;;;;;;;10.30;50.78;99607.43;1782368;80;21212;-72
2021/01/09 08:48:29;;;;;;;14.03;11.68;;;;;;;10.30;50.77;99613.59;1798749;78;21155;-69
2021/01/09 08:51:10;;;;;;;13.53;10.70;;;;;;;10.32;50.76;99606.28;1792680;78;21630;-71
2021/01/09 08:53:50;;;;;;;13.10;11.08;;;;;;;10.32;50.74;99606.28;1785451;79;21187;-71
2021/01/09 08:56:19;;;;;;;12.88;10.63;;;;;;;10.34;50.71;99600.81;1770177;78;22062;-72
2021/01/09 08:58:46;;;;;;;15.32;11.50;;;;;;;10.35;50.71;99599.32;1818148;78;21128;-72
2021/01/09 09:01:15;;;;;;;13.05;10.63;;;;;;;10.33;50.69;99597.30;1794691;78;21191;-71
2021/01/09 09:03:48;;;;;;;12.58;10.70;;;;;;;10.38;50.67;99598.14;1822004;78;21151;-70
2021/01/09 09:06:16;;;;;;;13.43;11.33;;;;;;;10.40;50.64;99608.09;1811814;78;21163;-70
2021/01/09 09:08:44;;;;;;;13.58;10.48;;;;;;;10.40;50.63;99608.91;1791005;78;21197;-70
2021/01/09 09:11:14;;;;;;;11.95;10.20;;;;;;;10.42;50.61;99610.08;1758482;80;21194;-72
2021/01/09 09:13:42;;;;;;;12.98;11.60;;;;;;;10.42;50.57;99600.27;1803567;78;22207;-72
2021/01/09 09:16:20;;;;;;;12.55;10.90;;;;;;;10.43;50.57;99605.92;1786808;78;21602;-70
2021/01/09 09:18:48;;;;;;;12.90;10.53;;;;;;;10.45;50.53;99597.80;1813543;78;21123;-71
2021/01/09 09:21:19;;;;;;;13.08;10.98;;;;;;;10.46;50.54;99598.62;1821337;78;21399;-71
2021/01/09 09:23:56;;;;;;;12.15;10.43;;;;;;;10.46;50.51;99599.44;1805859;78;21162;-71
2021/01/09 09:26:30;;;;;;;12.23;10.48;;;;;;;10.47;50.50;99598.92;1796075;78;21199;-72
2021/01/09 09:28:59;;;;;;;12.53;10.40;;;;;;;10.48;50.50;99596.61;1783520;79;21127;-71
2021/01/09 09:31:31;;;;;;;12.40;10.63;;;;;;;10.46;50.64;99586.16;1774081;80;21162;-70
2021/01/09 09:34:09;;;;;;;12.95;10.75;;;;;;;10.48;50.72;99593.45;1764475;80;21349;-71
2021/01/09 09:36:53;;;;;;;13.53;10.48;;;;;;;10.50;50.72;99591.95;1802909;78;21119;-71
2021/01/09 09:39:22;;;;;;;13.08;10.15;;;;;;;10.50;50.71;99590.63;1776115;80;21167;-69
2021/01/09 09:41:55;;;;;;;13.20;10.80;;;;;;;10.50;50.67;99580.01;1772243;79;21179;-71
2021/01/09 09:44:41;;;;;;;12.43;10.98;;;;;;;10.51;50.64;99586.98;1787572;79;21601;-70
2021/01/09 09:47:11;;;;;;;12.07;10.13;;;;;;;10.51;50.61;99581.17;1807012;78;21791;-68
2021/01/09 09:49:42;;;;;;;14.58;10.80;;;;;;;10.52;50.59;99579.34;1815501;78;21154;-67
2021/01/09 09:52:20;;;;;;;12.33;10.63;;;;;;;10.52;50.57;99575.35;1799317;78;21128;-67
2021/01/09 09:55:04;;;;;;;13.08;10.70;;;;;;;10.52;50.55;99578.83;1765767;79;21103;-68
2021/01/09 09:57:32;;;;;;;15.00;10.35;;;;;;;10.53;50.54;99578.34;1784045;79;21142;-71
2021/01/09 10:00:08;;;;;;;12.07;10.28;;;;;;;10.53;50.52;99577.02;1783009;79;21351;-72
2021/01/09 10:02:53;;;;;;;13.30;10.43;;;;;;;10.53;50.52;99571.70;1788213;80;21592;-70
2021/01/09 10:05:22;;;;;;;13.43;10.70;;;;;;;10.53;50.51;99573.03;1781737;79;21131;-70
2021/01/09 10:07:50;;;;;;;11.95;9.90;;;;;;;10.53;50.51;99576.52;1777675;79;21211;-71
2021/01/09 10:10:19;;;;;;;11.63;9.65;;;;;;;10.54;50.50;99573.34;1785925;80;21151;-71
2021/01/09 10:12:56;;;;;;;12.18;10.43;;;;;;;10.55;50.45;99571.86;1780902;79;21639;-72
2021/01/09 10:15:25;;;;;;;12.18;10.35;;;;;;;10.56;50.45;99570.84;1772345;80;21179;-68
2021/01/09 10:17:59;;;;;;;13.10;9.38;;;;;;;10.59;50.46;99578.98;1778175;80;21139;-68
2021/01/09 10:20:27;;;;;;;11.38;9.43;;;;;;;10.59;50.42;99576.33;1769788;80;21161;-69
2021/01/09 10:22:54;;;;;;;11.90;9.70;;;;;;;10.59;50.43;99570.50;1768673;80;22113;-69
2021/01/09 10:25:22;;;;;;;10.80;9.10;;;;;;;10.61;50.41;99570.34;1771122;79;21400;-71
2021/01/09 10:27:51;;;;;;;10.65;8.85;;;;;;;10.61;50.41;99571.16;1772213;80;21198;-70
2021/01/09 10:30:20;;;;;;;11.12;9.35;;;;;;;10.63;50.41;99571.81;1777984;79;21575;-70
2021/01/09 10:32:47;;;;;;;11.08;8.73;;;;;;;10.65;50.40;99564.19;1784670;79;21194;-70
2021/01/09 10:35:16;;;;;;;11.18;9.60;;;;;;;10.66;50.38;99565.31;1772595;79;21185;-69
2021/01/09 10:37:43;;;;;;;11.90;9.05;;;;;;;10.67;50.36;99563.00;1786950;80;21422;-71
2021/01/09 10:40:12;;;;;;;10.53;9.43;;;;;;;10.68;50.36;99560.69;1785368;80;21143;-70
2021/01/09 10:42:39;;;;;;;10.80;8.55;;;;;;;10.69;50.35;99565.49;1787296;80;21139;-70
2021/01/09 10:45:08;;;;;;;12.05;9.63;;;;;;;10.71;50.34;99567.47;1764689;79;21138;-69
2021/01/09 10:47:35;;;;;;;10.58;8.75;;;;;;;10.72;50.27;99563.80;1775467;80;21603;-71
2021/01/09 10:50:06;;;;;;;10.10;8.55;;;;;;;10.73;50.26;99562.81;1777330;80;21186;-70
2021/01/09 10:52:34;;;;;;;11.33;9.28;;;;;;;10.74;50.24;99562.64;1760828;79;21764;-71
2021/01/09 10:55:02;;;;;;;12.47;9.03;;;;;;;10.75;50.24;99559.48;1770771;80;21150;-70
2021/01/09 10:57:29;;;;;;;12.03;9.28;;;;;;;10.76;50.21;99561.97;1792256;80;21186;-71
2021/01/09 10:59:56;;;;;;;11.73;8.63;;;;;;;10.77;50.16;99564.94;1770721;79;21183;-71
2021/01/09 11:02:24;;;;;;;11.10;9.48;;;;;;;10.78;50.12;99567.12;1773625;79;22663;-71
2021/01/09 11:04:51;;;;;;;10.30;8.65;;;;;;;10.78;50.11;99567.94;1762081;79;21626;-71
2021/01/09 11:07:18;;;;;;;11.05;9.00;;;;;;;10.79;50.10;99566.92;1760983;79;21603;-71
2021/01/09 11:09:46;;;;;;;10.82;8.65;;;;;;;10.80;50.07;99564.60;1781355;79;21159;-71
2021/01/09 11:12:13;;;;;;;11.97;9.70;;;;;;;10.81;50.03;99566.23;1790984;80;21146;-71
2021/01/09 11:14:41;;;;;;;11.43;8.63;;;;;;;10.82;50.00;99560.45;1803443;78;21591;-70
2021/01/09 11:17:08;;;;;;;10.55;8.45;;;;;;;10.86;49.95;99564.92;1772837;78;21225;-70
2021/01/09 11:19:35;;;;;;;11.53;9.73;;;;;;;10.88;49.94;99561.08;1784754;79;21428;-70
2021/01/09 11:22:02;;;;;;;13.53;9.60;;;;;;;10.91;49.90;99561.22;1776798;79;21630;-70
2021/01/09 11:24:33;;;;;;;11.03;8.85;;;;;;;10.94;49.86;99564.36;1782275;79;21127;-71
2021/01/09 11:27:05;;;;;;;10.38;8.45;;;;;;;10.99;49.82;99566.00;1778264;79;22038;-71
2021/01/09 11:29:33;;;;;;;9.78;8.50;;;;;;;11.01;49.77;99566.66;1769647;79;21220;-70
2021/01/09 11:32:02;;;;;;;9.30;8.15;;;;;;;11.05;49.70;99561.81;1788611;79;21945;-70
2021/01/09 11:34:30;;;;;;;11.53;8.83;;;;;;;11.09;49.63;99568.44;1769101;80;21175;-71